Jowers, Louisiana
Current Conditions -  °F | °C
As of 9:35 PM on Monday 22 Dec 2014 (Local Time) from KIER Reporting Station
Clear Clear  
Wind Chill: 59°   Ceiling: Unl
Heat Index: 59°   Visibility: 10mi
Dew Point: 58°   Wind: 0mph
Humidity: 98%   Direction: NA
Pressure: 29.67"   Gusts: NA
Location:  31.6668°N, 92.8023°W
Report Text: KIER 230335Z AUTO 00000KT 10SM CLR 15/15 A2967 RMK AO2 T01480145
Loading
Personal Weather Stations






























Interactive Weather Map New forecast layout! Learn more

10-Day Weather Forecast

Advertisements
Track Severe Weather on mobile